Time,TemperatureF,DewpointF,PressureIn,WindDirection,WindDirectionDegrees,WindSpeedMPH,WindSpeedGustMPH,Humidity,HourlyPrecipIn,Conditions,Clouds,dailyrainin,SoftwareType,DateUTC
2013-12-09 00:02:00,70.3,67.8,30.09,SSW,209,1.0,7.0,92,0.00,,,0.00,meteohub,2013-12-09 06:02:00,
2013-12-09 00:07:00,70.3,67.8,30.09,South,174,4.0,7.0,92,0.00,,,0.00,meteohub,2013-12-09 06:07:00,
2013-12-09 00:12:00,70.3,67.8,30.09,SSE,168,1.0,7.0,92,0.00,,,0.00,meteohub,2013-12-09 06:12:00,
2013-12-09 00:17:00,70.3,67.8,30.09,South,190,0.0,7.0,92,0.00,,,0.00,meteohub,2013-12-09 06:17:00,
2013-12-09 00:22:00,70.3,67.8,30.09,ESE,120,1.0,10.0,92,0.00,,,0.00,meteohub,2013-12-09 06:22:00,
2013-12-09 00:27:00,70.3,67.8,30.09,SW,220,5.0,10.0,92,0.00,,,0.00,meteohub,2013-12-09 06:27:00,
2013-12-09 00:32:00,70.3,67.8,30.09,South,181,4.0,10.0,92,0.00,,,0.00,meteohub,2013-12-09 06:32:00,
2013-12-09 00:37:00,70.3,67.8,30.09,South,173,0.0,8.0,92,0.00,,,0.00,meteohub,2013-12-09 06:37:00,
2013-12-09 00:42:00,70.3,67.8,30.09,SW,233,2.0,8.0,92,0.00,,,0.00,meteohub,2013-12-09 06:42:00,
2013-12-09 00:47:00,70.3,67.8,30.09,South,190,1.0,7.0,92,0.00,,,0.00,meteohub,2013-12-09 06:47:00,
2013-12-09 00:52:00,70.3,67.8,30.09,SW,233,1.0,7.0,92,0.00,,,0.00,meteohub,2013-12-09 06:52:00,
2013-12-09 00:57:00,70.3,67.8,30.09,SSE,167,3.0,6.0,92,0.00,,,0.00,meteohub,2013-12-09 06:57:00,
2013-12-09 01:02:00,70.3,67.8,30.09,WSW,247,3.0,7.0,92,0.00,,,0.00,meteohub,2013-12-09 07:02:00,
2013-12-09 01:07:00,70.3,67.8,30.09,SSW,210,3.0,7.0,92,0.00,,,0.00,meteohub,2013-12-09 07:07:00,
2013-12-09 01:12:00,70.3,67.8,30.09,West,260,3.0,7.0,92,0.00,,,0.00,meteohub,2013-12-09 07:12:00,
2013-12-09 01:17:00,70.3,67.8,30.09,SW,220,3.0,10.0,92,0.00,,,0.00,meteohub,2013-12-09 07:17:00,
2013-12-09 01:22:00,70.3,67.8,30.09,SW,215,1.0,10.0,92,0.00,,,0.00,meteohub,2013-12-09 07:22:00,
2013-12-09 01:27:00,70.3,67.6,30.09,WSW,249,2.0,10.0,91,0.00,,,0.00,meteohub,2013-12-09 07:27:00,
2013-12-09 01:32:00,70.3,67.6,30.09,SW,235,1.0,9.0,91,0.00,,,0.00,meteohub,2013-12-09 07:32:00,
2013-12-09 01:37:00,70.3,67.6,30.08,West,260,0.0,9.0,91,0.00,,,0.00,meteohub,2013-12-09 07:37:00,
2013-12-09 01:42:00,70.3,67.8,30.08,SW,230,3.0,7.0,92,0.00,,,0.00,meteohub,2013-12-09 07:42:00,
2013-12-09 01:47:00,70.3,67.8,30.08,SE,145,3.0,7.0,92,0.00,,,0.00,meteohub,2013-12-09 07:47:00,
2013-12-09 01:52:00,70.3,67.8,30.08,South,170,0.0,7.0,92,0.00,,,0.00,meteohub,2013-12-09 07:52:00,
2013-12-09 01:57:00,70.3,67.8,30.08,SSW,210,2.0,7.0,92,0.00,,,0.00,meteohub,2013-12-09 07:57:00,
2013-12-09 02:03:00,70.2,67.6,30.08,SW,236,4.0,7.0,92,0.00,,,0.00,meteohub,2013-12-09 08:03:00,
2013-12-09 02:08:00,70.2,67.6,30.08,WSW,245,1.0,7.0,92,0.00,,,0.00,meteohub,2013-12-09 08:08:00,
2013-12-09 02:13:00,70.2,67.6,30.08,SW,229,0.0,6.0,92,0.00,,,0.00,meteohub,2013-12-09 08:13:00,
2013-12-09 02:18:00,70.0,67.5,30.08,SSE,159,6.0,6.0,92,0.00,,,0.00,meteohub,2013-12-09 08:18:00,
2013-12-09 02:23:00,70.0,67.5,30.08,SSW,212,0.0,7.0,92,0.00,,,0.00,meteohub,2013-12-09 08:23:00,
2013-12-09 02:28:00,70.0,67.5,30.08,South,174,1.0,7.0,92,0.00,,,0.00,meteohub,2013-12-09 08:28:00,
2013-12-09 02:33:00,69.8,67.3,30.08,South,176,1.0,6.0,92,0.00,,,0.00,meteohub,2013-12-09 08:33:00,
2013-12-09 02:38:00,69.6,67.3,30.08,SSW,193,0.0,6.0,92,0.00,,,0.00,meteohub,2013-12-09 08:38:00,
2013-12-09 02:43:00,69.4,67.3,30.08,WSW,244,0.0,6.0,93,0.00,,,0.00,meteohub,2013-12-09 08:43:00,
2013-12-09 02:49:00,69.4,67.3,30.07,South,191,1.0,5.0,93,0.00,,,0.00,meteohub,2013-12-09 08:49:00,
2013-12-09 02:54:00,69.3,67.1,30.07,SSE,165,2.0,4.0,93,0.00,,,0.00,meteohub,2013-12-09 08:54:00,
2013-12-09 02:59:00,69.3,67.1,30.07,SE,135,0.0,4.0,93,0.00,,,0.00,meteohub,2013-12-09 08:59:00,
2013-12-09 03:04:00,69.1,66.9,30.07,SSW,195,0.0,4.0,93,0.00,,,0.00,meteohub,2013-12-09 09:04:00,
2013-12-09 03:09:00,69.1,66.9,30.07,SSE,162,3.0,4.0,93,0.00,,,0.00,meteohub,2013-12-09 09:09:00,
2013-12-09 03:14:00,69.1,66.9,30.07,SSW,193,3.0,4.0,93,0.00,,,0.00,meteohub,2013-12-09 09:14:00,
2013-12-09 03:19:00,68.9,67.1,30.07,SSW,206,0.0,4.0,94,0.00,,,0.00,meteohub,2013-12-09 09:19:00,
2013-12-09 03:24:00,68.7,66.9,30.07,South,189,2.0,4.0,94,0.00,,,0.00,meteohub,2013-12-09 09:24:00,
2013-12-09 03:30:00,68.7,66.9,30.07,SSW,206,0.0,7.0,94,0.00,,,0.00,meteohub,2013-12-09 09:30:00,
2013-12-09 03:35:00,68.5,66.7,30.07,SSW,212,3.0,7.0,94,0.00,,,0.00,meteohub,2013-12-09 09:35:00,
2013-12-09 03:40:00,68.5,66.7,30.07,SSE,155,1.0,8.0,94,0.00,,,0.00,meteohub,2013-12-09 09:40:00,
2013-12-09 03:45:00,68.5,66.7,30.07,SE,137,4.0,8.0,94,0.00,,,0.00,meteohub,2013-12-09 09:45:00,
2013-12-09 03:50:00,68.5,66.7,30.07,South,170,3.0,8.0,94,0.00,,,0.00,meteohub,2013-12-09 09:50:00,
2013-12-09 03:55:00,68.5,66.7,30.06,SSE,147,0.0,7.0,94,0.00,,,0.00,meteohub,2013-12-09 09:55:00,
2013-12-09 04:00:00,68.7,66.9,30.07,SE,127,1.0,8.0,94,0.00,,,0.00,meteohub,2013-12-09 10:00:00,
2013-12-09 04:05:00,68.7,66.9,30.07,South,190,1.0,8.0,94,0.00,,,0.00,meteohub,2013-12-09 10:05:00,
2013-12-09 04:11:00,68.5,66.7,30.07,South,189,1.0,6.0,94,0.00,,,0.00,meteohub,2013-12-09 10:11:00,
2013-12-09 04:16:00,68.5,66.7,30.07,SSW,197,2.0,4.0,94,0.00,,,0.00,meteohub,2013-12-09 10:16:00,
2013-12-09 04:21:00,68.5,66.7,30.07,SSW,212,0.0,4.0,94,0.00,,,0.00,meteohub,2013-12-09 10:21:00,
2013-12-09 04:26:00,68.5,66.7,30.07,South,187,0.0,4.0,94,0.00,,,0.00,meteohub,2013-12-09 10:26:00,
2013-12-09 04:31:00,68.5,66.7,30.07,SSW,201,0.0,4.0,94,0.00,,,0.00,meteohub,2013-12-09 10:31:00,
2013-12-09 04:36:00,68.5,66.7,30.07,SSW,201,1.0,3.0,94,0.00,,,0.00,meteohub,2013-12-09 10:36:00,
2013-12-09 04:42:00,68.4,66.6,30.07,South,173,0.0,3.0,94,0.00,,,0.00,meteohub,2013-12-09 10:42:00,
2013-12-09 04:47:00,68.4,66.9,30.07,East,88,0.0,3.0,95,0.00,,,0.00,meteohub,2013-12-09 10:47:00,
2013-12-09 04:52:00,68.4,66.9,30.07,SSE,166,1.0,3.0,95,0.00,,,0.00,meteohub,2013-12-09 10:52:00,
2013-12-09 04:57:00,68.2,66.7,30.07,SSW,201,0.0,3.0,95,0.00,,,0.00,meteohub,2013-12-09 10:57:00,
2013-12-09 05:02:00,68.2,66.7,30.07,SSE,161,0.0,4.0,95,0.00,,,0.00,meteohub,2013-12-09 11:02:00,
2013-12-09 05:07:00,68.2,66.7,30.06,South,186,1.0,4.0,95,0.00,,,0.00,meteohub,2013-12-09 11:07:00,
2013-12-09 05:08:00,68.2,66.7,30.06,SSW,193,0.0,4.0,95,0.00,,,0.00,meteohub,2013-12-09 11:08:00,
2013-12-09 05:13:00,68.2,66.7,30.06,South,179,1.0,4.0,95,0.00,,,0.00,meteohub,2013-12-09 11:13:00,
2013-12-09 05:18:00,68.0,66.6,30.07,South,183,0.0,4.0,95,0.00,,,0.00,meteohub,2013-12-09 11:18:00,
2013-12-09 05:23:00,68.0,66.6,30.07,South,173,1.0,4.0,95,0.00,,,0.00,meteohub,2013-12-09 11:23:00,
2013-12-09 05:28:00,68.0,66.6,30.07,SSE,168,0.0,4.0,95,0.00,,,0.00,meteohub,2013-12-09 11:28:00,
2013-12-09 05:33:00,68.0,66.6,30.07,SSW,206,4.0,5.0,95,0.00,,,0.00,meteohub,2013-12-09 11:33:00,
2013-12-09 05:38:00,68.0,66.6,30.07,SW,223,3.0,5.0,95,0.00,,,0.00,meteohub,2013-12-09 11:38:00,
2013-12-09 05:43:00,68.2,66.7,30.07,South,188,3.0,5.0,95,0.00,,,0.00,meteohub,2013-12-09 11:43:00,
2013-12-09 05:49:00,68.4,66.9,30.07,SSE,154,3.0,6.0,95,0.00,,,0.00,meteohub,2013-12-09 11:49:00,
2013-12-09 05:54:00,68.4,66.9,30.07,SW,219,1.0,6.0,95,0.00,,,0.00,meteohub,2013-12-09 11:54:00,
2013-12-09 05:59:00,68.4,66.9,30.07,SE,131,1.0,6.0,95,0.00,,,0.00,meteohub,2013-12-09 11:59:00,
2013-12-09 06:04:00,68.4,66.9,30.07,South,175,1.0,5.0,95,0.00,,,0.00,meteohub,2013-12-09 12:04:00,
2013-12-09 06:09:00,68.4,66.9,30.07,SSW,194,3.0,5.0,95,0.00,,,0.00,meteohub,2013-12-09 12:09:00,
2013-12-09 06:14:00,68.5,67.1,30.08,SSE,162,1.0,5.0,95,0.00,,,0.00,meteohub,2013-12-09 12:14:00,
2013-12-09 06:19:00,68.5,67.1,30.08,SSE,158,4.0,5.0,95,0.00,,,0.00,meteohub,2013-12-09 12:19:00,
2013-12-09 06:24:00,68.5,67.1,30.08,South,170,4.0,7.0,95,0.00,,,0.00,meteohub,2013-12-09 12:24:00,
2013-12-09 06:30:00,68.7,67.3,30.08,SW,216,0.0,11.0,95,0.00,,,0.00,meteohub,2013-12-09 12:30:00,
2013-12-09 06:35:00,68.7,67.3,30.08,SW,218,1.0,11.0,95,0.00,,,0.00,meteohub,2013-12-09 12:35:00,
2013-12-09 06:40:00,68.7,67.3,30.08,SSE,160,0.0,7.0,95,0.00,,,0.00,meteohub,2013-12-09 12:40:00,
2013-12-09 06:45:00,68.7,67.3,30.08,SSW,193,7.0,7.0,95,0.00,,,0.00,meteohub,2013-12-09 12:45:00,
2013-12-09 06:50:00,68.7,67.3,30.08,SSW,206,0.0,7.0,95,0.00,,,0.00,meteohub,2013-12-09 12:50:00,
2013-12-09 06:55:00,68.9,67.5,30.08,SSW,197,6.0,7.0,95,0.00,,,0.00,meteohub,2013-12-09 12:55:00,
2013-12-09 07:00:00,69.1,67.6,30.08,South,188,6.0,7.0,95,0.00,,,0.00,meteohub,2013-12-09 13:00:00,
2013-12-09 07:05:00,69.1,67.6,30.08,SW,220,5.0,8.0,95,0.00,,,0.00,meteohub,2013-12-09 13:05:00,
2013-12-09 07:11:00,69.3,67.8,30.08,South,184,1.0,8.0,95,0.00,,,0.00,meteohub,2013-12-09 13:11:00,
2013-12-09 07:16:00,69.3,67.8,30.09,SSE,167,2.0,7.0,95,0.00,,,0.00,meteohub,2013-12-09 13:16:00,
2013-12-09 07:21:00,69.4,68.0,30.09,South,179,0.0,6.0,95,0.00,,,0.00,meteohub,2013-12-09 13:21:00,
2013-12-09 07:26:00,69.4,68.0,30.09,North,8,0.0,5.0,95,0.00,,,0.00,meteohub,2013-12-09 13:26:00,
2013-12-09 07:31:00,69.4,68.0,30.09,WSW,241,1.0,7.0,95,0.00,,,0.00,meteohub,2013-12-09 13:31:00,
2013-12-09 07:36:00,69.4,68.0,30.09,SSW,207,1.0,7.0,95,0.00,,,0.00,meteohub,2013-12-09 13:36:00,
2013-12-09 07:41:00,69.6,68.2,30.09,WSW,239,1.0,7.0,95,0.00,,,0.00,meteohub,2013-12-09 13:41:00,
2013-12-09 07:46:00,69.6,68.2,30.09,WSW,241,0.0,6.0,95,0.00,,,0.00,meteohub,2013-12-09 13:46:00,
2013-12-09 07:52:00,69.6,68.2,30.09,WSW,246,2.0,6.0,95,0.00,,,0.00,meteohub,2013-12-09 13:52:00,
2013-12-09 07:57:00,69.8,68.4,30.10,SW,214,2.0,6.0,95,0.00,,,0.00,meteohub,2013-12-09 13:57:00,
2013-12-09 08:02:00,70.0,68.2,30.10,SW,215,3.0,6.0,94,0.00,,,0.00,meteohub,2013-12-09 14:02:00,
2013-12-09 08:07:00,70.0,68.2,30.10,WSW,239,4.0,8.0,94,0.00,,,0.00,meteohub,2013-12-09 14:07:00,
2013-12-09 08:12:00,70.2,68.4,30.10,WSW,256,3.0,8.0,94,0.00,,,0.00,meteohub,2013-12-09 14:12:00,
2013-12-09 08:17:00,70.2,68.4,30.10,West,263,4.0,7.0,94,0.00,,,0.00,meteohub,2013-12-09 14:17:00,
2013-12-09 08:22:00,70.2,68.4,30.10,WSW,239,3.0,7.0,94,0.00,,,0.00,meteohub,2013-12-09 14:22:00,
2013-12-09 08:27:00,70.3,68.5,30.10,South,188,1.0,7.0,94,0.00,,,0.00,meteohub,2013-12-09 14:27:00,
2013-12-09 08:32:00,70.5,68.7,30.11,WSW,252,3.0,7.0,94,0.00,,,0.00,meteohub,2013-12-09 14:32:00,
2013-12-09 08:37:00,70.9,69.1,30.11,SW,215,1.0,7.0,94,0.00,,,0.00,meteohub,2013-12-09 14:37:00,
2013-12-09 08:42:00,71.1,68.9,30.11,SSW,212,0.0,5.0,93,0.00,,,0.00,meteohub,2013-12-09 14:42:00,
2013-12-09 08:47:00,71.2,69.1,30.11,SE,143,0.0,7.0,93,0.00,,,0.00,meteohub,2013-12-09 14:47:00,
2013-12-09 08:52:00,71.2,69.1,30.11,SW,222,4.0,7.0,93,0.00,,,0.00,meteohub,2013-12-09 14:52:00,
2013-12-09 08:57:00,71.6,69.4,30.11,WSW,247,0.0,8.0,93,0.00,,,0.00,meteohub,2013-12-09 14:57:00,
2013-12-09 09:02:00,72.0,69.4,30.11,SW,226,7.0,8.0,92,0.00,,,0.00,meteohub,2013-12-09 15:02:00,
2013-12-09 09:07:00,72.0,69.4,30.11,WSW,243,1.0,8.0,92,0.00,,,0.00,meteohub,2013-12-09 15:07:00,
2013-12-09 09:12:00,72.1,69.6,30.11,WSW,243,1.0,8.0,92,0.00,,,0.00,meteohub,2013-12-09 15:12:00,
2013-12-09 09:17:00,72.3,69.8,30.11,WSW,258,0.0,8.0,92,0.00,,,0.00,meteohub,2013-12-09 15:17:00,
2013-12-09 09:22:00,72.5,69.8,30.11,WSW,238,2.0,6.0,91,0.00,,,0.00,meteohub,2013-12-09 15:22:00,
2013-12-09 09:27:00,72.7,70.0,30.11,SW,224,1.0,5.0,91,0.00,,,0.00,meteohub,2013-12-09 15:27:00,
2013-12-09 09:32:00,72.7,70.0,30.11,SW,235,0.0,7.0,91,0.00,,,0.00,meteohub,2013-12-09 15:32:00,
2013-12-09 09:37:00,72.7,70.2,30.11,South,180,1.0,7.0,92,0.00,,,0.00,meteohub,2013-12-09 15:37:00,
2013-12-09 09:42:00,72.5,70.0,30.11,West,281,3.0,7.0,92,0.00,,,0.00,meteohub,2013-12-09 15:42:00,
2013-12-09 09:47:00,72.1,70.0,30.10,WNW,295,2.0,6.0,93,0.00,,,0.00,meteohub,2013-12-09 15:47:00,
2013-12-09 09:52:00,72.0,69.8,30.10,West,261,4.0,6.0,93,0.00,,,0.00,meteohub,2013-12-09 15:52:00,
2013-12-09 09:57:00,72.0,69.8,30.10,SSW,198,3.0,7.0,93,0.00,,,0.00,meteohub,2013-12-09 15:57:00,
2013-12-09 10:02:00,72.3,70.2,30.10,SW,226,3.0,7.0,93,0.00,,,0.00,meteohub,2013-12-09 16:02:00,
2013-12-09 10:07:00,72.7,70.5,30.09,South,185,1.0,7.0,93,0.00,,,0.00,meteohub,2013-12-09 16:07:00,
2013-12-09 10:12:00,72.9,70.3,30.09,SW,233,0.0,7.0,92,0.00,,,0.00,meteohub,2013-12-09 16:12:00,
2013-12-09 10:17:00,72.9,70.3,30.09,SW,233,4.0,7.0,92,0.00,,,0.00,meteohub,2013-12-09 16:17:00,
2013-12-09 10:22:00,72.7,70.2,30.09,West,267,6.0,7.0,92,0.00,,,0.00,meteohub,2013-12-09 16:22:00,
2013-12-09 10:27:00,72.0,69.4,30.10,West,268,3.0,7.0,92,0.00,,,0.00,meteohub,2013-12-09 16:27:00,
2013-12-09 10:32:00,71.2,68.7,30.10,NW,305,4.0,8.0,92,0.00,,,0.00,meteohub,2013-12-09 16:32:00,
2013-12-09 10:37:00,70.7,68.5,30.10,West,278,1.0,8.0,93,0.00,,,0.00,meteohub,2013-12-09 16:37:00,
2013-12-09 10:42:00,69.6,67.3,30.10,NNE,23,0.0,9.0,92,0.00,,,0.00,meteohub,2013-12-09 16:42:00,
2013-12-09 10:47:00,68.9,66.6,30.10,NNE,24,0.0,9.0,92,0.00,,,0.00,meteohub,2013-12-09 16:47:00,
2013-12-09 10:52:00,68.4,66.0,30.10,NNE,24,0.0,9.0,92,0.00,,,0.00,meteohub,2013-12-09 16:52:00,
2013-12-09 10:57:00,67.8,65.7,30.10,NNE,24,0.0,5.0,93,0.00,,,0.00,meteohub,2013-12-09 16:57:00,
2013-12-09 11:02:00,67.6,65.8,30.09,West,276,0.0,2.0,94,0.00,,,0.00,meteohub,2013-12-09 17:02:00,
2013-12-09 11:07:00,67.3,65.5,30.09,West,276,0.0,2.0,94,0.00,,,0.00,meteohub,2013-12-09 17:07:00,
2013-12-09 11:12:00,67.1,65.3,30.09,West,276,0.0,3.0,94,0.00,,,0.00,meteohub,2013-12-09 17:12:00,
2013-12-09 11:17:00,66.7,64.9,30.09,West,263,3.0,3.0,94,0.00,,,0.00,meteohub,2013-12-09 17:17:00,
2013-12-09 11:22:00,66.4,64.2,30.09,West,265,0.0,4.0,93,0.00,,,0.00,meteohub,2013-12-09 17:22:00,
2013-12-09 11:27:00,66.0,64.2,30.09,West,265,0.0,4.0,94,0.00,,,0.00,meteohub,2013-12-09 17:27:00,
2013-12-09 11:32:00,66.0,64.2,30.09,West,265,0.0,4.0,94,0.00,,,0.00,meteohub,2013-12-09 17:32:00,
2013-12-09 11:37:00,66.0,64.2,30.09,West,265,0.0,4.0,94,0.00,,,0.00,meteohub,2013-12-09 17:37:00,
2013-12-09 11:42:00,66.0,64.2,30.08,West,265,0.0,1.0,94,0.00,,,0.00,meteohub,2013-12-09 17:42:00,
2013-12-09 11:47:00,66.0,64.6,30.08,West,266,0.0,1.0,95,0.00,,,0.00,meteohub,2013-12-09 17:47:00,
2013-12-09 11:52:00,66.2,64.8,30.08,West,266,0.0,1.0,95,0.00,,,0.00,meteohub,2013-12-09 17:52:00,
2013-12-09 11:57:00,66.4,64.9,30.08,West,265,0.0,1.0,95,0.00,,,0.00,meteohub,2013-12-09 17:57:00,
2013-12-09 12:02:00,66.4,64.9,30.08,West,265,0.0,1.0,95,0.00,,,0.00,meteohub,2013-12-09 18:02:00,
2013-12-09 12:07:00,66.4,64.9,30.08,West,265,0.0,2.0,95,0.00,,,0.00,meteohub,2013-12-09 18:07:00,
2013-12-09 12:12:00,66.0,64.6,30.08,West,265,0.0,2.0,95,0.00,,,0.00,meteohub,2013-12-09 18:12:00,
2013-12-09 12:17:00,66.0,64.2,30.08,West,265,0.0,2.0,94,0.00,,,0.00,meteohub,2013-12-09 18:17:00,
2013-12-09 12:22:00,66.0,64.6,30.08,West,266,0.0,2.0,95,0.00,,,0.00,meteohub,2013-12-09 18:22:00,
2013-12-09 12:27:00,66.2,64.8,30.07,West,265,0.0,0.0,95,0.00,,,0.00,meteohub,2013-12-09 18:27:00,
2013-12-09 12:32:00,66.4,64.9,30.07,West,265,0.0,0.0,95,0.00,,,0.00,meteohub,2013-12-09 18:32:00,
2013-12-09 12:37:00,66.4,64.9,30.07,West,265,0.0,0.0,95,0.00,,,0.00,meteohub,2013-12-09 18:37:00,
2013-12-09 12:42:00,66.4,64.9,30.07,West,265,0.0,0.0,95,0.00,,,0.00,meteohub,2013-12-09 18:42:00,
2013-12-09 12:47:00,66.4,64.9,30.07,WNW,302,0.0,3.0,95,0.00,,,0.00,meteohub,2013-12-09 18:47:00,
2013-12-09 12:52:00,66.2,64.8,30.07,WNW,295,0.0,4.0,95,0.00,,,0.00,meteohub,2013-12-09 18:52:00,
2013-12-09 12:57:00,66.0,64.6,30.07,WNW,286,2.0,4.0,95,0.00,,,0.00,meteohub,2013-12-09 18:57:00,
2013-12-09 13:02:00,65.8,64.4,30.07,WNW,286,3.0,5.0,95,0.00,,,0.00,meteohub,2013-12-09 19:02:00,
2013-12-09 13:07:00,65.8,64.4,30.07,WNW,287,0.0,5.0,95,0.00,,,0.00,meteohub,2013-12-09 19:07:00,
2013-12-09 13:12:00,65.7,64.2,30.06,NW,314,0.0,5.0,95,0.00,,,0.00,meteohub,2013-12-09 19:12:00,
2013-12-09 13:17:00,65.7,64.2,30.06,WNW,298,2.0,5.0,95,0.00,,,0.00,meteohub,2013-12-09 19:17:00,
2013-12-09 13:22:00,65.7,64.4,30.06,West,280,0.0,6.0,96,0.00,,,0.00,meteohub,2013-12-09 19:22:00,
2013-12-09 13:27:00,65.7,64.2,30.06,West,280,0.0,6.0,95,0.00,,,0.00,meteohub,2013-12-09 19:27:00,
2013-12-09 13:32:00,65.7,64.4,30.06,NW,319,0.0,6.0,96,0.00,,,0.00,meteohub,2013-12-09 19:32:00,
2013-12-09 13:37:00,65.8,64.6,30.05,NNW,347,0.0,4.0,96,0.00,,,0.00,meteohub,2013-12-09 19:37:00,
2013-12-09 13:42:00,66.0,64.8,30.05,NNW,347,0.0,3.0,96,0.00,,,0.00,meteohub,2013-12-09 19:42:00,
2013-12-09 13:47:00,66.0,64.8,30.05,NNW,347,0.0,3.0,96,0.00,,,0.00,meteohub,2013-12-09 19:47:00,
2013-12-09 13:52:00,66.0,64.6,30.05,North,354,0.0,1.0,95,0.00,,,0.00,meteohub,2013-12-09 19:52:00,
2013-12-09 13:57:00,66.0,64.6,30.05,West,262,3.0,3.0,95,0.00,,,0.00,meteohub,2013-12-09 19:57:00,
2013-12-09 14:02:00,66.0,64.6,30.05,NNE,23,2.0,3.0,95,0.00,,,0.00,meteohub,2013-12-09 20:02:00,
2013-12-09 14:07:00,66.0,64.6,30.05,NNE,30,0.0,3.0,95,0.00,,,0.00,meteohub,2013-12-09 20:07:00,
2013-12-09 14:12:00,66.0,64.6,30.05,NNE,30,0.0,3.0,95,0.00,,,0.00,meteohub,2013-12-09 20:12:00,
2013-12-09 14:17:00,66.2,64.9,30.05,NNE,30,0.0,2.0,96,0.00,,,0.00,meteohub,2013-12-09 20:17:00,
2013-12-09 14:22:00,66.2,64.8,30.05,WNW,283,2.0,2.0,95,0.00,,,0.00,meteohub,2013-12-09 20:22:00,
2013-12-09 14:27:00,66.0,64.6,30.06,WNW,296,0.0,3.0,95,0.00,,,0.00,meteohub,2013-12-09 20:27:00,
2013-12-09 14:32:00,65.8,64.4,30.06,WSW,243,0.0,4.0,95,0.00,,,0.00,meteohub,2013-12-09 20:32:00,
2013-12-09 14:37:00,65.7,64.2,30.06,WNW,295,2.0,4.0,95,0.00,,,0.00,meteohub,2013-12-09 20:37:00,
2013-12-09 14:42:00,65.5,64.0,30.06,WNW,283,0.0,6.0,95,0.00,,,0.00,meteohub,2013-12-09 20:42:00,
2013-12-09 14:47:00,65.5,64.0,30.06,WNW,283,0.0,6.0,95,0.00,,,0.00,meteohub,2013-12-09 20:47:00,
2013-12-09 14:52:00,65.5,64.0,30.06,WNW,283,0.0,6.0,95,0.00,,,0.00,meteohub,2013-12-09 20:52:00,
2013-12-09 14:57:00,65.3,63.9,30.06,WNW,283,0.0,2.0,95,0.00,,,0.00,meteohub,2013-12-09 20:57:00,
2013-12-09 15:02:00,65.5,64.0,30.06,WNW,283,0.0,2.0,95,0.00,,,0.00,meteohub,2013-12-09 21:02:00,
2013-12-09 15:07:00,65.7,64.2,30.06,WNW,283,0.0,1.0,95,0.00,,,0.00,meteohub,2013-12-09 21:07:00,
2013-12-09 15:12:00,65.8,64.4,30.06,WNW,283,2.0,2.0,95,0.00,,,0.00,meteohub,2013-12-09 21:12:00,
2013-12-09 15:17:00,65.8,64.0,30.06,WNW,283,0.0,3.0,94,0.00,,,0.00,meteohub,2013-12-09 21:17:00,
2013-12-09 15:22:00,65.8,63.7,30.06,WNW,283,0.0,3.0,93,0.00,,,0.00,meteohub,2013-12-09 21:22:00,
2013-12-09 15:27:00,65.8,64.0,30.07,WNW,283,0.0,3.0,94,0.00,,,0.00,meteohub,2013-12-09 21:27:00,
2013-12-09 15:32:00,66.0,64.2,30.07,WNW,283,0.0,2.0,94,0.00,,,0.00,meteohub,2013-12-09 21:32:00,
2013-12-09 15:37:00,66.2,64.4,30.06,WNW,283,0.0,1.0,94,0.00,,,0.00,meteohub,2013-12-09 21:37:00,
2013-12-09 15:42:00,66.2,64.4,30.07,WNW,283,0.0,1.0,94,0.00,,,0.00,meteohub,2013-12-09 21:42:00,
2013-12-09 15:47:00,66.4,64.2,30.07,WNW,283,0.0,1.0,93,0.00,,,0.00,meteohub,2013-12-09 21:47:00,
2013-12-09 15:52:00,66.4,64.2,30.07,WNW,283,0.0,1.0,93,0.00,,,0.00,meteohub,2013-12-09 21:52:00,
2013-12-09 15:57:00,66.2,64.0,30.07,WNW,283,0.0,1.0,93,0.00,,,0.00,meteohub,2013-12-09 21:57:00,
2013-12-09 16:02:00,66.2,64.0,30.07,WNW,283,0.0,0.0,93,0.00,,,0.00,meteohub,2013-12-09 22:02:00,
2013-12-09 16:07:00,66.0,64.2,30.06,WNW,283,0.0,1.0,94,0.00,,,0.00,meteohub,2013-12-09 22:07:00,
2013-12-09 16:12:00,66.0,64.2,30.06,WNW,283,0.0,1.0,94,0.00,,,0.00,meteohub,2013-12-09 22:12:00,
2013-12-09 16:17:00,66.0,64.2,30.06,WNW,283,0.0,1.0,94,0.00,,,0.00,meteohub,2013-12-09 22:17:00,
2013-12-09 16:22:00,65.8,64.0,30.06,WNW,283,0.0,0.0,94,0.00,,,0.00,meteohub,2013-12-09 22:22:00,
2013-12-09 16:27:00,65.8,64.0,30.06,WNW,283,0.0,0.0,94,0.00,,,0.00,meteohub,2013-12-09 22:27:00,
2013-12-09 16:32:00,65.8,64.0,30.06,WNW,283,0.0,1.0,94,0.00,,,0.00,meteohub,2013-12-09 22:32:00,
2013-12-09 16:37:00,65.7,63.9,30.06,WNW,283,0.0,1.0,94,0.00,,,0.00,meteohub,2013-12-09 22:37:00,
2013-12-09 16:42:00,65.7,63.9,30.06,WNW,283,0.0,1.0,94,0.00,,,0.00,meteohub,2013-12-09 22:42:00,
2013-12-09 16:47:00,65.7,63.9,30.06,WNW,283,0.0,0.0,94,0.00,,,0.00,meteohub,2013-12-09 22:47:00,
2013-12-09 16:52:00,65.5,63.7,30.06,WNW,283,0.0,0.0,94,0.00,,,0.00,meteohub,2013-12-09 22:52:00,
2013-12-09 16:57:00,65.5,64.0,30.06,WNW,283,0.0,0.0,95,0.00,,,0.00,meteohub,2013-12-09 22:57:00,
2013-12-09 17:02:00,65.5,64.0,30.07,WNW,283,0.0,0.0,95,0.00,,,0.00,meteohub,2013-12-09 23:02:00,
2013-12-09 17:07:00,65.5,64.0,30.07,WNW,283,0.0,0.0,95,0.00,,,0.00,meteohub,2013-12-09 23:07:00,
2013-12-09 17:12:00,65.5,64.0,30.07,WNW,283,0.0,0.0,95,0.00,,,0.00,meteohub,2013-12-09 23:12:00,
2013-12-09 17:17:00,65.5,64.0,30.07,WNW,283,0.0,0.0,95,0.00,,,0.00,meteohub,2013-12-09 23:17:00,
2013-12-09 17:22:00,65.3,63.9,30.07,WNW,283,0.0,0.0,95,0.00,,,0.00,meteohub,2013-12-09 23:22:00,
2013-12-09 17:27:00,65.3,63.9,30.07,WNW,283,0.0,0.0,95,0.00,,,0.00,meteohub,2013-12-09 23:27:00,
2013-12-09 17:32:00,65.3,63.9,30.07,WNW,283,0.0,0.0,95,0.00,,,0.00,meteohub,2013-12-09 23:32:00,
2013-12-09 17:37:00,65.3,63.9,30.07,WNW,283,0.0,0.0,95,0.00,,,0.00,meteohub,2013-12-09 23:37:00,
2013-12-09 17:42:00,65.3,63.9,30.07,WNW,283,0.0,0.0,95,0.00,,,0.00,meteohub,2013-12-09 23:42:00,
2013-12-09 17:47:00,65.1,63.7,30.07,WNW,283,0.0,0.0,95,0.00,,,0.00,meteohub,2013-12-09 23:47:00,
2013-12-09 17:52:00,65.1,63.7,30.07,WNW,283,0.0,0.0,95,0.00,,,0.00,meteohub,2013-12-09 23:52:00,
2013-12-09 17:57:00,65.1,63.7,30.07,WNW,283,0.0,0.0,95,0.00,,,0.00,meteohub,2013-12-09 23:57:00,
2013-12-09 18:02:00,64.9,63.5,30.06,WNW,283,0.0,0.0,95,0.00,,,0.00,meteohub,2013-12-10 00:02:00,
2013-12-09 18:07:00,64.9,63.5,30.07,WNW,283,0.0,0.0,95,0.00,,,0.00,meteohub,2013-12-10 00:07:00,
2013-12-09 18:12:00,64.9,63.5,30.07,WNW,283,0.0,0.0,95,0.00,,,0.00,meteohub,2013-12-10 00:12:00,
2013-12-09 18:17:00,64.9,63.5,30.07,WNW,283,0.0,0.0,95,0.00,,,0.00,meteohub,2013-12-10 00:17:00,
2013-12-09 18:22:00,64.9,63.5,30.07,WNW,283,0.0,1.0,95,0.00,,,0.00,meteohub,2013-12-10 00:22:00,
2013-12-09 18:28:00,64.9,63.5,30.07,WNW,283,0.0,1.0,95,0.00,,,0.00,meteohub,2013-12-10 00:28:00,
2013-12-09 18:33:00,64.8,63.3,30.07,WNW,283,0.0,1.0,95,0.00,,,0.00,meteohub,2013-12-10 00:33:00,
2013-12-09 18:38:00,64.8,63.3,30.07,WNW,283,0.0,1.0,95,0.00,,,0.00,meteohub,2013-12-10 00:38:00,
2013-12-09 18:43:00,64.8,63.3,30.07,WNW,283,0.0,1.0,95,0.00,,,0.00,meteohub,2013-12-10 00:43:00,
2013-12-09 18:48:00,64.8,63.3,30.07,WNW,283,0.0,1.0,95,0.00,,,0.00,meteohub,2013-12-10 00:48:00,
2013-12-09 18:53:00,64.8,63.3,30.08,WNW,283,0.0,1.0,95,0.00,,,0.00,meteohub,2013-12-10 00:53:00,
2013-12-09 18:58:00,64.8,63.3,30.07,WNW,283,0.0,0.0,95,0.00,,,0.00,meteohub,2013-12-10 00:58:00,
2013-12-09 19:03:00,64.8,63.3,30.07,WNW,283,0.0,0.0,95,0.00,,,0.00,meteohub,2013-12-10 01:03:00,
2013-12-09 19:09:00,64.8,63.3,30.07,WNW,283,0.0,0.0,95,0.00,,,0.00,meteohub,2013-12-10 01:09:00,
2013-12-09 19:14:00,64.8,63.3,30.07,WNW,283,0.0,0.0,95,0.00,,,0.00,meteohub,2013-12-10 01:14:00,
2013-12-09 19:19:00,64.8,63.3,30.07,WNW,283,0.0,0.0,95,0.00,,,0.00,meteohub,2013-12-10 01:19:00,
2013-12-09 19:24:00,64.8,63.3,30.07,WNW,283,0.0,0.0,95,0.00,,,0.00,meteohub,2013-12-10 01:24:00,
2013-12-09 19:29:00,64.8,63.3,30.07,WNW,283,0.0,0.0,95,0.00,,,0.00,meteohub,2013-12-10 01:29:00,
2013-12-09 19:34:00,64.6,63.5,30.07,WNW,283,0.0,0.0,96,0.00,,,0.00,meteohub,2013-12-10 01:34:00,
2013-12-09 19:39:00,64.8,63.7,30.07,WNW,283,0.0,0.0,96,0.00,,,0.00,meteohub,2013-12-10 01:39:00,
2013-12-09 19:44:00,64.8,63.7,30.07,WNW,283,0.0,0.0,96,0.00,,,0.00,meteohub,2013-12-10 01:44:00,
2013-12-09 19:50:00,64.8,63.7,30.06,WNW,283,0.0,0.0,96,0.00,,,0.00,meteohub,2013-12-10 01:50:00,
2013-12-09 19:55:00,64.8,63.7,30.07,WNW,283,0.0,0.0,96,0.00,,,0.00,meteohub,2013-12-10 01:55:00,
2013-12-09 20:00:00,64.6,63.5,30.07,WNW,283,0.0,1.0,96,0.00,,,0.00,meteohub,2013-12-10 02:00:00,
2013-12-09 20:05:00,64.6,63.5,30.07,WNW,283,0.0,1.0,96,0.00,,,0.00,meteohub,2013-12-10 02:05:00,
2013-12-09 20:10:00,64.6,63.5,30.06,WNW,283,0.0,1.0,96,0.00,,,0.00,meteohub,2013-12-10 02:10:00,
2013-12-09 20:15:00,64.6,63.5,30.06,WNW,283,0.0,0.0,96,0.00,,,0.00,meteohub,2013-12-10 02:15:00,
2013-12-09 20:20:00,64.6,63.5,30.06,WNW,283,0.0,0.0,96,0.00,,,0.00,meteohub,2013-12-10 02:20:00,
2013-12-09 20:25:00,64.6,63.5,30.06,WNW,283,0.0,0.0,96,0.00,,,0.00,meteohub,2013-12-10 02:25:00,
2013-12-09 20:30:00,64.6,63.5,30.06,WNW,283,0.0,1.0,96,0.00,,,0.00,meteohub,2013-12-10 02:30:00,
2013-12-09 20:36:00,64.2,63.1,30.06,WNW,283,0.0,1.0,96,0.00,,,0.00,meteohub,2013-12-10 02:36:00,
2013-12-09 20:41:00,64.2,63.1,30.06,WNW,283,0.0,1.0,96,0.00,,,0.00,meteohub,2013-12-10 02:41:00,
2013-12-09 20:46:00,64.0,63.0,30.07,WNW,283,2.0,2.0,96,0.00,,,0.00,meteohub,2013-12-10 02:46:00,
2013-12-09 20:51:00,64.0,63.0,30.06,WNW,283,2.0,4.0,96,0.00,,,0.00,meteohub,2013-12-10 02:51:00,
2013-12-09 20:56:00,63.9,62.8,30.07,WNW,283,0.0,4.0,96,0.00,,,0.00,meteohub,2013-12-10 02:56:00,
2013-12-09 21:01:00,63.9,62.8,30.06,WNW,283,0.0,4.0,96,0.00,,,0.00,meteohub,2013-12-10 03:01:00,
2013-12-09 21:06:00,63.9,62.8,30.06,WNW,283,0.0,4.0,96,0.00,,,0.00,meteohub,2013-12-10 03:06:00,
2013-12-09 21:11:00,63.7,62.6,30.06,WNW,283,0.0,3.0,96,0.00,,,0.00,meteohub,2013-12-10 03:11:00,
2013-12-09 21:17:00,63.7,62.6,30.05,WNW,283,0.0,1.0,96,0.00,,,0.00,meteohub,2013-12-10 03:17:00,
2013-12-09 21:22:00,63.7,62.6,30.05,WNW,283,0.0,1.0,96,0.00,,,0.00,meteohub,2013-12-10 03:22:00,
2013-12-09 21:27:00,63.7,62.6,30.05,WNW,283,0.0,1.0,96,0.00,,,0.00,meteohub,2013-12-10 03:27:00,
2013-12-09 21:32:00,63.5,62.4,30.06,West,278,3.0,3.0,96,0.00,,,0.00,meteohub,2013-12-10 03:32:00,
2013-12-09 21:37:00,63.3,62.2,30.06,West,279,2.0,4.0,96,0.00,,,0.00,meteohub,2013-12-10 03:37:00,
2013-12-09 21:42:00,63.1,62.1,30.06,West,279,1.0,4.0,96,0.00,,,0.00,meteohub,2013-12-10 03:42:00,
2013-12-09 21:47:00,63.0,61.9,30.06,West,279,0.0,4.0,96,0.00,,,0.00,meteohub,2013-12-10 03:47:00,
2013-12-09 21:52:00,63.0,61.9,30.06,West,279,0.0,3.0,96,0.00,,,0.00,meteohub,2013-12-10 03:52:00,
2013-12-09 21:57:00,62.6,61.5,30.06,West,279,0.0,2.0,96,0.00,,,0.00,meteohub,2013-12-10 03:57:00,
2013-12-09 22:02:00,62.4,61.3,30.06,West,279,0.0,1.0,96,0.00,,,0.00,meteohub,2013-12-10 04:02:00,
2013-12-09 22:07:00,62.4,61.3,30.06,West,279,0.0,1.0,96,0.00,,,0.00,meteohub,2013-12-10 04:07:00,
2013-12-09 22:12:00,62.2,61.2,30.06,West,279,0.0,0.0,96,0.00,,,0.00,meteohub,2013-12-10 04:12:00,
2013-12-09 22:17:00,62.2,61.2,30.06,West,279,0.0,1.0,96,0.00,,,0.00,meteohub,2013-12-10 04:17:00,
2013-12-09 22:22:00,62.2,61.2,30.06,West,279,0.0,1.0,96,0.00,,,0.00,meteohub,2013-12-10 04:22:00,
2013-12-09 22:27:00,62.2,61.2,30.05,West,279,1.0,1.0,96,0.00,,,0.00,meteohub,2013-12-10 04:27:00,
2013-12-09 22:32:00,62.2,61.2,30.05,SE,135,0.0,3.0,96,0.00,,,0.00,meteohub,2013-12-10 04:32:00,
2013-12-09 22:37:00,62.2,61.2,30.05,SE,135,0.0,3.0,96,0.00,,,0.00,meteohub,2013-12-10 04:37:00,
2013-12-09 22:42:00,62.4,61.3,30.05,SE,135,0.0,3.0,96,0.00,,,0.00,meteohub,2013-12-10 04:42:00,
2013-12-09 22:47:00,62.4,61.3,30.05,SE,135,0.0,1.0,96,0.00,,,0.00,meteohub,2013-12-10 04:47:00,
2013-12-09 22:52:00,62.2,61.2,30.05,SE,135,0.0,0.0,96,0.00,,,0.00,meteohub,2013-12-10 04:52:00,
2013-12-09 22:57:00,62.2,61.2,30.04,SE,135,0.0,0.0,96,0.00,,,0.00,meteohub,2013-12-10 04:57:00,
2013-12-09 23:01:00,62.2,61.2,30.05,West,278,0.0,3.0,96,0.00,,,0.00,meteohub,2013-12-10 05:01:00,
2013-12-09 23:02:00,62.2,61.2,30.05,West,278,0.0,3.0,96,0.00,,,0.00,meteohub,2013-12-10 05:02:00,
2013-12-09 23:06:00,62.2,61.2,30.05,West,278,0.0,3.0,96,0.00,,,0.00,meteohub,2013-12-10 05:06:00,
2013-12-09 23:08:00,62.2,61.2,30.05,West,278,2.0,3.0,96,0.00,,,0.00,meteohub,2013-12-10 05:08:00,
2013-12-09 23:13:00,62.2,61.2,30.04,West,278,0.0,3.0,96,0.00,,,0.00,meteohub,2013-12-10 05:13:00,
2013-12-09 23:18:00,62.2,61.2,30.04,West,278,0.0,3.0,96,0.00,,,0.00,meteohub,2013-12-10 05:18:00,
2013-12-09 23:23:00,62.2,61.2,30.04,West,277,0.0,3.0,96,0.00,,,0.00,meteohub,2013-12-10 05:23:00,
2013-12-09 23:29:00,62.4,61.3,30.04,West,277,0.0,2.0,96,0.00,,,0.00,meteohub,2013-12-10 05:29:00,
2013-12-09 23:34:00,62.4,61.3,30.04,West,277,0.0,2.0,96,0.00,,,0.00,meteohub,2013-12-10 05:34:00,
2013-12-09 23:39:00,62.4,61.3,30.04,West,277,2.0,2.0,96,0.00,,,0.00,meteohub,2013-12-10 05:39:00,
2013-12-09 23:44:00,62.4,61.3,30.04,West,277,0.0,2.0,96,0.00,,,0.00,meteohub,2013-12-10 05:44:00,
2013-12-09 23:49:00,62.4,61.3,30.04,West,277,2.0,2.0,96,0.00,,,0.00,meteohub,2013-12-10 05:49:00,
2013-12-09 23:54:00,62.4,61.3,30.04,West,277,2.0,2.0,96,0.00,,,0.00,meteohub,2013-12-10 05:54:00,
2013-12-09 23:59:00,62.2,61.2,30.04,West,277,0.0,2.0,96,0.00,,,0.00,meteohub,2013-12-10 05:59:00,